sensor_id;sensor_type;location;lat;lon;timestamp;P1;durP1;ratioP1;P2;durP2;ratioP2
27740;SDS011;15134;48.768;9.184;2022-11-15T00:00:14;10.20;;;5.05;;
27740;SDS011;15134;48.768;9.184;2022-11-15T00:02:58;8.85;;;5.05;;
27740;SDS011;15134;48.768;9.184;2022-11-15T00:05:43;10.68;;;5.15;;
27740;SDS011;15134;48.768;9.184;2022-11-15T00:08:31;8.82;;;5.05;;
27740;SDS011;15134;48.768;9.184;2022-11-15T00:11:16;7.60;;;4.32;;
27740;SDS011;15134;48.768;9.184;2022-11-15T00:14:00;10.82;;;4.75;;
27740;SDS011;15134;48.768;9.184;2022-11-15T00:16:48;8.27;;;4.82;;
27740;SDS011;15134;48.768;9.184;2022-11-15T00:19:32;8.05;;;4.53;;
27740;SDS011;15134;48.768;9.184;2022-11-15T00:22:16;10.00;;;4.93;;
27740;SDS011;15134;48.768;9.184;2022-11-15T00:25:01;7.78;;;5.03;;
27740;SDS011;15134;48.768;9.184;2022-11-15T00:27:46;9.27;;;4.32;;
27740;SDS011;15134;48.768;9.184;2022-11-15T00:30:30;10.40;;;4.97;;
27740;SDS011;15134;48.768;9.184;2022-11-15T00:33:15;11.38;;;4.75;;
27740;SDS011;15134;48.768;9.184;2022-11-15T00:36:03;9.52;;;5.15;;
27740;SDS011;15134;48.768;9.184;2022-11-15T00:38:53;10.15;;;4.43;;
27740;SDS011;15134;48.768;9.184;2022-11-15T00:41:37;8.20;;;4.40;;
27740;SDS011;15134;48.768;9.184;2022-11-15T00:44:21;10.68;;;5.20;;
27740;SDS011;15134;48.768;9.184;2022-11-15T00:47:05;8.20;;;4.50;;
27740;SDS011;15134;48.768;9.184;2022-11-15T00:49:49;8.85;;;4.50;;
27740;SDS011;15134;48.768;9.184;2022-11-15T00:52:33;9.60;;;4.20;;
27740;SDS011;15134;48.768;9.184;2022-11-15T00:55:17;7.88;;;3.72;;
27740;SDS011;15134;48.768;9.184;2022-11-15T00:58:02;9.10;;;4.10;;
27740;SDS011;15134;48.768;9.184;2022-11-15T01:00:48;8.88;;;3.92;;
27740;SDS011;15134;48.768;9.184;2022-11-15T01:03:33;10.55;;;4.60;;
27740;SDS011;15134;48.768;9.184;2022-11-15T01:06:18;8.37;;;4.40;;
27740;SDS011;15134;48.768;9.184;2022-11-15T01:09:02;8.70;;;3.70;;
27740;SDS011;15134;48.768;9.184;2022-11-15T01:11:47;8.80;;;3.65;;
27740;SDS011;15134;48.768;9.184;2022-11-15T01:14:31;8.65;;;3.50;;
27740;SDS011;15134;48.768;9.184;2022-11-15T01:17:15;8.05;;;3.20;;
27740;SDS011;15134;48.768;9.184;2022-11-15T01:19:59;8.52;;;3.40;;
27740;SDS011;15134;48.768;9.184;2022-11-15T01:22:43;8.32;;;3.70;;
27740;SDS011;15134;48.768;9.184;2022-11-15T01:25:27;6.93;;;3.15;;
27740;SDS011;15134;48.768;9.184;2022-11-15T01:28:13;6.60;;;3.17;;
27740;SDS011;15134;48.768;9.184;2022-11-15T01:30:57;6.60;;;3.23;;
27740;SDS011;15134;48.768;9.184;2022-11-15T01:33:43;6.88;;;3.38;;
27740;SDS011;15134;48.768;9.184;2022-11-15T01:36:27;8.63;;;3.40;;
27740;SDS011;15134;48.768;9.184;2022-11-15T01:39:11;8.25;;;3.28;;
27740;SDS011;15134;48.768;9.184;2022-11-15T01:41:57;7.05;;;3.20;;
27740;SDS011;15134;48.768;9.184;2022-11-15T01:44:49;6.55;;;3.47;;
27740;SDS011;15134;48.768;9.184;2022-11-15T01:47:36;8.50;;;3.55;;
27740;SDS011;15134;48.768;9.184;2022-11-15T01:50:26;7.53;;;3.00;;
27740;SDS011;15134;48.768;9.184;2022-11-15T01:53:14;5.40;;;3.10;;
27740;SDS011;15134;48.768;9.184;2022-11-15T01:56:01;9.30;;;3.10;;
27740;SDS011;15134;48.768;9.184;2022-11-15T01:58:47;7.10;;;3.15;;
27740;SDS011;15134;48.768;9.184;2022-11-15T02:01:32;7.70;;;3.35;;
27740;SDS011;15134;48.768;9.184;2022-11-15T02:04:21;5.93;;;2.78;;
27740;SDS011;15134;48.768;9.184;2022-11-15T02:07:17;7.57;;;3.35;;
27740;SDS011;15134;48.768;9.184;2022-11-15T02:10:09;6.95;;;3.10;;
27740;SDS011;15134;48.768;9.184;2022-11-15T02:12:56;7.57;;;2.92;;
27740;SDS011;15134;48.768;9.184;2022-11-15T02:18:58;6.95;;;3.38;;
27740;SDS011;15134;48.768;9.184;2022-11-15T02:24:54;7.22;;;3.17;;
27740;SDS011;15134;48.768;9.184;2022-11-15T02:31:20;5.57;;;2.97;;
27740;SDS011;15134;48.768;9.184;2022-11-15T02:34:22;7.82;;;3.13;;
27740;SDS011;15134;48.768;9.184;2022-11-15T02:37:21;7.47;;;3.00;;
27740;SDS011;15134;48.768;9.184;2022-11-15T02:43:28;6.80;;;3.10;;
27740;SDS011;15134;48.768;9.184;2022-11-15T02:47:00;11.43;;;2.97;;
27740;SDS011;15134;48.768;9.184;2022-11-15T02:50:05;10.13;;;3.40;;
27740;SDS011;15134;48.768;9.184;2022-11-15T02:52:52;7.45;;;2.88;;
27740;SDS011;15134;48.768;9.184;2022-11-15T02:55:38;6.78;;;3.20;;
27740;SDS011;15134;48.768;9.184;2022-11-15T03:04:37;5.95;;;3.22;;
27740;SDS011;15134;48.768;9.184;2022-11-15T03:07:39;6.13;;;2.70;;
27740;SDS011;15134;48.768;9.184;2022-11-15T03:11:10;7.40;;;3.15;;
27740;SDS011;15134;48.768;9.184;2022-11-15T03:17:11;5.20;;;2.80;;
27740;SDS011;15134;48.768;9.184;2022-11-15T03:20:13;6.68;;;3.22;;
27740;SDS011;15134;48.768;9.184;2022-11-15T03:23:03;6.80;;;2.88;;
27740;SDS011;15134;48.768;9.184;2022-11-15T03:25:50;6.05;;;3.15;;
27740;SDS011;15134;48.768;9.184;2022-11-15T03:28:37;6.28;;;2.92;;
27740;SDS011;15134;48.768;9.184;2022-11-15T03:31:27;7.25;;;2.78;;
27740;SDS011;15134;48.768;9.184;2022-11-15T03:34:40;5.93;;;2.75;;
27740;SDS011;15134;48.768;9.184;2022-11-15T03:37:45;7.65;;;3.00;;
27740;SDS011;15134;48.768;9.184;2022-11-15T03:47:09;5.40;;;2.70;;
27740;SDS011;15134;48.768;9.184;2022-11-15T03:50:03;6.45;;;3.22;;
27740;SDS011;15134;48.768;9.184;2022-11-15T03:52:51;6.45;;;2.63;;
27740;SDS011;15134;48.768;9.184;2022-11-15T03:55:38;5.90;;;2.50;;
27740;SDS011;15134;48.768;9.184;2022-11-15T03:58:22;6.32;;;2.92;;
27740;SDS011;15134;48.768;9.184;2022-11-15T04:01:06;6.45;;;2.80;;
27740;SDS011;15134;48.768;9.184;2022-11-15T04:03:51;7.28;;;2.70;;
27740;SDS011;15134;48.768;9.184;2022-11-15T04:06:35;6.18;;;2.40;;
27740;SDS011;15134;48.768;9.184;2022-11-15T04:09:19;8.23;;;2.90;;
27740;SDS011;15134;48.768;9.184;2022-11-15T04:12:05;5.57;;;2.95;;
27740;SDS011;15134;48.768;9.184;2022-11-15T04:14:49;5.47;;;2.80;;
27740;SDS011;15134;48.768;9.184;2022-11-15T04:17:51;6.32;;;3.00;;
27740;SDS011;15134;48.768;9.184;2022-11-15T04:20:40;5.07;;;2.70;;
27740;SDS011;15134;48.768;9.184;2022-11-15T04:23:45;6.72;;;3.38;;
27740;SDS011;15134;48.768;9.184;2022-11-15T04:26:50;4.68;;;2.83;;
27740;SDS011;15134;48.768;9.184;2022-11-15T04:29:34;7.15;;;2.90;;
27740;SDS011;15134;48.768;9.184;2022-11-15T04:32:18;7.97;;;2.97;;
27740;SDS011;15134;48.768;9.184;2022-11-15T04:35:02;6.55;;;2.85;;
27740;SDS011;15134;48.768;9.184;2022-11-15T04:37:46;9.43;;;3.00;;
27740;SDS011;15134;48.768;9.184;2022-11-15T04:40:30;8.50;;;3.20;;
27740;SDS011;15134;48.768;9.184;2022-11-15T04:43:15;6.75;;;3.33;;
27740;SDS011;15134;48.768;9.184;2022-11-15T04:46:00;6.00;;;3.13;;
27740;SDS011;15134;48.768;9.184;2022-11-15T04:48:45;7.00;;;3.33;;
27740;SDS011;15134;48.768;9.184;2022-11-15T04:51:29;7.05;;;3.10;;
27740;SDS011;15134;48.768;9.184;2022-11-15T04:54:20;6.18;;;2.80;;
27740;SDS011;15134;48.768;9.184;2022-11-15T04:57:04;9.80;;;3.58;;
27740;SDS011;15134;48.768;9.184;2022-11-15T04:59:48;9.38;;;3.33;;
27740;SDS011;15134;48.768;9.184;2022-11-15T05:02:33;8.70;;;2.80;;
27740;SDS011;15134;48.768;9.184;2022-11-15T05:05:36;8.23;;;2.75;;
27740;SDS011;15134;48.768;9.184;2022-11-15T05:08:20;7.85;;;3.03;;
27740;SDS011;15134;48.768;9.184;2022-11-15T05:11:04;9.32;;;3.30;;
27740;SDS011;15134;48.768;9.184;2022-11-15T05:13:49;8.05;;;3.20;;
27740;SDS011;15134;48.768;9.184;2022-11-15T05:16:37;6.90;;;2.88;;
27740;SDS011;15134;48.768;9.184;2022-11-15T05:19:20;6.45;;;2.97;;
27740;SDS011;15134;48.768;9.184;2022-11-15T05:22:05;6.78;;;3.25;;
27740;SDS011;15134;48.768;9.184;2022-11-15T05:24:49;7.20;;;2.67;;
27740;SDS011;15134;48.768;9.184;2022-11-15T05:27:33;10.00;;;3.50;;
27740;SDS011;15134;48.768;9.184;2022-11-15T05:30:18;8.68;;;4.25;;
27740;SDS011;15134;48.768;9.184;2022-11-15T05:33:02;5.70;;;2.63;;
27740;SDS011;15134;48.768;9.184;2022-11-15T05:35:50;6.45;;;2.78;;
27740;SDS011;15134;48.768;9.184;2022-11-15T05:38:43;5.25;;;2.33;;
27740;SDS011;15134;48.768;9.184;2022-11-15T05:41:41;7.07;;;3.15;;
27740;SDS011;15134;48.768;9.184;2022-11-15T05:44:35;5.90;;;3.00;;
27740;SDS011;15134;48.768;9.184;2022-11-15T05:50:11;15.68;;;6.18;;
27740;SDS011;15134;48.768;9.184;2022-11-15T05:52:59;6.93;;;3.53;;
27740;SDS011;15134;48.768;9.184;2022-11-15T05:55:47;9.45;;;4.82;;
27740;SDS011;15134;48.768;9.184;2022-11-15T05:58:34;9.35;;;3.75;;
27740;SDS011;15134;48.768;9.184;2022-11-15T06:01:20;8.00;;;3.20;;
27740;SDS011;15134;48.768;9.184;2022-11-15T06:04:05;6.55;;;3.20;;
27740;SDS011;15134;48.768;9.184;2022-11-15T06:06:49;8.60;;;3.63;;
27740;SDS011;15134;48.768;9.184;2022-11-15T06:09:35;9.48;;;4.18;;
27740;SDS011;15134;48.768;9.184;2022-11-15T06:12:20;8.77;;;4.63;;
27740;SDS011;15134;48.768;9.184;2022-11-15T06:15:10;10.95;;;3.58;;
27740;SDS011;15134;48.768;9.184;2022-11-15T06:17:56;13.00;;;4.20;;
27740;SDS011;15134;48.768;9.184;2022-11-15T06:20:43;8.90;;;5.25;;
27740;SDS011;15134;48.768;9.184;2022-11-15T06:23:28;7.43;;;5.10;;
27740;SDS011;15134;48.768;9.184;2022-11-15T06:26:16;7.40;;;4.88;;
27740;SDS011;15134;48.768;9.184;2022-11-15T06:29:00;9.85;;;5.47;;
27740;SDS011;15134;48.768;9.184;2022-11-15T06:31:47;24.85;;;13.77;;
27740;SDS011;15134;48.768;9.184;2022-11-15T06:34:31;31.35;;;17.67;;
27740;SDS011;15134;48.768;9.184;2022-11-15T06:37:15;14.40;;;8.55;;
27740;SDS011;15134;48.768;9.184;2022-11-15T06:40:00;20.60;;;10.80;;
27740;SDS011;15134;48.768;9.184;2022-11-15T06:42:44;65.13;;;33.92;;
27740;SDS011;15134;48.768;9.184;2022-11-15T06:45:28;30.33;;;16.92;;
27740;SDS011;15134;48.768;9.184;2022-11-15T06:48:12;43.35;;;22.15;;
27740;SDS011;15134;48.768;9.184;2022-11-15T06:50:58;21.73;;;10.75;;
27740;SDS011;15134;48.768;9.184;2022-11-15T06:56:28;15.85;;;10.40;;
27740;SDS011;15134;48.768;9.184;2022-11-15T06:59:13;90.00;;;62.42;;
27740;SDS011;15134;48.768;9.184;2022-11-15T07:01:57;68.75;;;45.45;;
27740;SDS011;15134;48.768;9.184;2022-11-15T07:04:41;24.88;;;15.30;;
27740;SDS011;15134;48.768;9.184;2022-11-15T07:07:25;122.18;;;79.50;;
27740;SDS011;15134;48.768;9.184;2022-11-15T07:10:09;111.50;;;78.20;;
27740;SDS011;15134;48.768;9.184;2022-11-15T07:12:54;45.25;;;30.35;;
27740;SDS011;15134;48.768;9.184;2022-11-15T07:15:39;18.70;;;11.90;;
27740;SDS011;15134;48.768;9.184;2022-11-15T07:18:23;13.63;;;7.95;;
27740;SDS011;15134;48.768;9.184;2022-11-15T07:21:08;14.55;;;7.80;;
27740;SDS011;15134;48.768;9.184;2022-11-15T07:23:54;30.02;;;16.58;;
27740;SDS011;15134;48.768;9.184;2022-11-15T07:26:38;25.85;;;13.82;;
27740;SDS011;15134;48.768;9.184;2022-11-15T07:29:22;25.02;;;14.50;;
27740;SDS011;15134;48.768;9.184;2022-11-15T07:32:06;34.45;;;17.85;;
27740;SDS011;15134;48.768;9.184;2022-11-15T07:34:50;18.13;;;9.15;;
27740;SDS011;15134;48.768;9.184;2022-11-15T07:37:37;14.00;;;6.13;;
27740;SDS011;15134;48.768;9.184;2022-11-15T07:40:21;10.90;;;5.60;;
27740;SDS011;15134;48.768;9.184;2022-11-15T07:43:06;14.45;;;8.65;;
27740;SDS011;15134;48.768;9.184;2022-11-15T07:45:53;33.25;;;18.67;;
27740;SDS011;15134;48.768;9.184;2022-11-15T07:48:38;57.88;;;28.45;;
27740;SDS011;15134;48.768;9.184;2022-11-15T07:51:26;35.72;;;17.90;;
27740;SDS011;15134;48.768;9.184;2022-11-15T07:54:10;18.80;;;9.40;;
27740;SDS011;15134;48.768;9.184;2022-11-15T07:56:54;18.23;;;9.52;;
27740;SDS011;15134;48.768;9.184;2022-11-15T07:59:38;16.40;;;8.85;;
27740;SDS011;15134;48.768;9.184;2022-11-15T08:02:22;16.67;;;8.07;;
27740;SDS011;15134;48.768;9.184;2022-11-15T08:05:06;16.92;;;8.02;;
27740;SDS011;15134;48.768;9.184;2022-11-15T08:07:51;71.15;;;52.67;;
27740;SDS011;15134;48.768;9.184;2022-11-15T08:10:35;36.45;;;19.90;;
27740;SDS011;15134;48.768;9.184;2022-11-15T08:13:20;18.73;;;11.00;;
27740;SDS011;15134;48.768;9.184;2022-11-15T08:16:05;25.27;;;14.73;;
27740;SDS011;15134;48.768;9.184;2022-11-15T08:18:49;109.68;;;77.13;;
27740;SDS011;15134;48.768;9.184;2022-11-15T08:21:33;58.88;;;36.38;;
27740;SDS011;15134;48.768;9.184;2022-11-15T08:24:18;54.00;;;31.92;;
27740;SDS011;15134;48.768;9.184;2022-11-15T08:27:04;43.35;;;25.77;;
27740;SDS011;15134;48.768;9.184;2022-11-15T08:29:48;16.08;;;8.05;;
27740;SDS011;15134;48.768;9.184;2022-11-15T08:32:33;18.73;;;10.13;;
27740;SDS011;15134;48.768;9.184;2022-11-15T08:35:17;14.30;;;5.93;;
27740;SDS011;15134;48.768;9.184;2022-11-15T08:38:02;37.60;;;19.60;;
27740;SDS011;15134;48.768;9.184;2022-11-15T08:40:46;59.83;;;30.95;;
27740;SDS011;15134;48.768;9.184;2022-11-15T08:43:33;17.95;;;8.20;;
27740;SDS011;15134;48.768;9.184;2022-11-15T08:46:17;20.90;;;9.80;;
27740;SDS011;15134;48.768;9.184;2022-11-15T08:49:02;10.43;;;5.18;;
27740;SDS011;15134;48.768;9.184;2022-11-15T08:51:46;12.38;;;4.75;;
27740;SDS011;15134;48.768;9.184;2022-11-15T08:54:32;10.25;;;4.40;;
27740;SDS011;15134;48.768;9.184;2022-11-15T08:57:17;9.05;;;4.28;;
27740;SDS011;15134;48.768;9.184;2022-11-15T09:00:02;9.50;;;4.53;;
27740;SDS011;15134;48.768;9.184;2022-11-15T09:02:47;9.00;;;4.67;;
27740;SDS011;15134;48.768;9.184;2022-11-15T09:05:31;12.15;;;4.70;;
27740;SDS011;15134;48.768;9.184;2022-11-15T09:08:16;12.05;;;5.03;;
27740;SDS011;15134;48.768;9.184;2022-11-15T09:11:04;10.77;;;5.53;;
27740;SDS011;15134;48.768;9.184;2022-11-15T09:13:52;10.65;;;5.30;;
27740;SDS011;15134;48.768;9.184;2022-11-15T09:16:37;12.77;;;5.13;;
27740;SDS011;15134;48.768;9.184;2022-11-15T09:19:24;8.90;;;5.00;;
27740;SDS011;15134;48.768;9.184;2022-11-15T09:22:08;10.75;;;5.28;;
27740;SDS011;15134;48.768;9.184;2022-11-15T09:24:52;11.65;;;5.53;;
27740;SDS011;15134;48.768;9.184;2022-11-15T09:27:36;12.70;;;5.50;;
27740;SDS011;15134;48.768;9.184;2022-11-15T09:30:20;10.02;;;5.18;;
27740;SDS011;15134;48.768;9.184;2022-11-15T09:33:11;11.05;;;5.28;;
27740;SDS011;15134;48.768;9.184;2022-11-15T09:36:04;12.85;;;5.72;;
27740;SDS011;15134;48.768;9.184;2022-11-15T09:38:50;10.85;;;5.07;;
27740;SDS011;15134;48.768;9.184;2022-11-15T09:41:48;10.95;;;5.72;;
27740;SDS011;15134;48.768;9.184;2022-11-15T09:53:23;12.23;;;5.38;;
27740;SDS011;15134;48.768;9.184;2022-11-15T09:56:03;11.90;;;5.88;;
27740;SDS011;15134;48.768;9.184;2022-11-15T10:03:59;13.13;;;5.30;;
27740;SDS011;15134;48.768;9.184;2022-11-15T10:06:25;10.33;;;5.23;;
27740;SDS011;15134;48.768;9.184;2022-11-15T10:11:32;8.18;;;4.80;;
27740;SDS011;15134;48.768;9.184;2022-11-15T10:14:23;13.95;;;5.90;;
27740;SDS011;15134;48.768;9.184;2022-11-15T10:27:47;8.68;;;4.00;;
27740;SDS011;15134;48.768;9.184;2022-11-15T10:30:23;12.32;;;3.97;;
27740;SDS011;15134;48.768;9.184;2022-11-15T10:32:55;6.53;;;3.20;;
27740;SDS011;15134;48.768;9.184;2022-11-15T10:35:28;7.43;;;3.33;;
27740;SDS011;15134;48.768;9.184;2022-11-15T10:38:06;9.55;;;3.70;;
27740;SDS011;15134;48.768;9.184;2022-11-15T10:40:34;10.75;;;3.85;;
27740;SDS011;15134;48.768;9.184;2022-11-15T10:45:35;6.80;;;2.80;;
27740;SDS011;15134;48.768;9.184;2022-11-15T10:50:40;8.07;;;2.80;;
27740;SDS011;15134;48.768;9.184;2022-11-15T10:53:55;8.27;;;2.72;;
27740;SDS011;15134;48.768;9.184;2022-11-15T10:56:11;7.68;;;3.05;;
27740;SDS011;15134;48.768;9.184;2022-11-15T10:58:50;8.63;;;2.85;;
27740;SDS011;15134;48.768;9.184;2022-11-15T11:01:22;8.13;;;2.75;;
27740;SDS011;15134;48.768;9.184;2022-11-15T11:04:03;8.57;;;2.78;;
27740;SDS011;15134;48.768;9.184;2022-11-15T11:06:45;7.32;;;2.60;;
27740;SDS011;15134;48.768;9.184;2022-11-15T11:09:27;6.90;;;2.65;;
27740;SDS011;15134;48.768;9.184;2022-11-15T11:12:02;4.55;;;1.92;;
27740;SDS011;15134;48.768;9.184;2022-11-15T11:14:35;7.63;;;2.85;;
27740;SDS011;15134;48.768;9.184;2022-11-15T11:28:56;8.48;;;3.00;;
27740;SDS011;15134;48.768;9.184;2022-11-15T11:37:35;7.97;;;3.25;;
27740;SDS011;15134;48.768;9.184;2022-11-15T11:48:21;10.95;;;4.60;;
27740;SDS011;15134;48.768;9.184;2022-11-15T11:51:00;24.52;;;11.43;;
27740;SDS011;15134;48.768;9.184;2022-11-15T11:53:37;22.65;;;9.48;;
27740;SDS011;15134;48.768;9.184;2022-11-15T11:56:15;18.38;;;7.10;;
27740;SDS011;15134;48.768;9.184;2022-11-15T11:58:48;24.67;;;10.13;;
27740;SDS011;15134;48.768;9.184;2022-11-15T12:04:38;11.32;;;4.97;;
27740;SDS011;15134;48.768;9.184;2022-11-15T12:12:31;10.40;;;4.38;;
27740;SDS011;15134;48.768;9.184;2022-11-15T12:15:15;11.88;;;3.85;;
27740;SDS011;15134;48.768;9.184;2022-11-15T12:17:50;8.63;;;3.33;;
27740;SDS011;15134;48.768;9.184;2022-11-15T12:20:17;5.30;;;2.53;;
27740;SDS011;15134;48.768;9.184;2022-11-15T12:27:56;10.40;;;3.78;;
27740;SDS011;15134;48.768;9.184;2022-11-15T12:30:39;12.70;;;4.70;;
27740;SDS011;15134;48.768;9.184;2022-11-15T12:36:08;5.43;;;2.45;;
27740;SDS011;15134;48.768;9.184;2022-11-15T12:41:20;7.22;;;2.50;;
27740;SDS011;15134;48.768;9.184;2022-11-15T12:43:47;4.85;;;2.28;;
27740;SDS011;15134;48.768;9.184;2022-11-15T12:57:21;5.85;;;2.17;;
27740;SDS011;15134;48.768;9.184;2022-11-15T13:04:52;7.18;;;2.10;;
27740;SDS011;15134;48.768;9.184;2022-11-15T13:17:39;10.80;;;3.40;;
27740;SDS011;15134;48.768;9.184;2022-11-15T13:22:49;8.40;;;3.97;;
27740;SDS011;15134;48.768;9.184;2022-11-15T13:28:34;10.20;;;3.42;;
27740;SDS011;15134;48.768;9.184;2022-11-15T13:31:49;7.80;;;3.35;;
27740;SDS011;15134;48.768;9.184;2022-11-15T13:33:59;8.77;;;3.10;;
27740;SDS011;15134;48.768;9.184;2022-11-15T13:36:31;7.35;;;3.40;;
27740;SDS011;15134;48.768;9.184;2022-11-15T13:39:23;9.27;;;3.10;;
27740;SDS011;15134;48.768;9.184;2022-11-15T13:41:53;5.93;;;3.10;;
27740;SDS011;15134;48.768;9.184;2022-11-15T13:44:20;8.00;;;3.58;;
27740;SDS011;15134;48.768;9.184;2022-11-15T13:47:09;7.70;;;3.20;;
27740;SDS011;15134;48.768;9.184;2022-11-15T13:49:39;9.32;;;3.38;;
27740;SDS011;15134;48.768;9.184;2022-11-15T13:52:06;7.47;;;3.05;;
27740;SDS011;15134;48.768;9.184;2022-11-15T13:59:51;9.25;;;3.60;;
27740;SDS011;15134;48.768;9.184;2022-11-15T14:02:26;8.45;;;3.30;;
27740;SDS011;15134;48.768;9.184;2022-11-15T14:05:03;8.80;;;3.67;;
27740;SDS011;15134;48.768;9.184;2022-11-15T14:07:39;9.80;;;3.60;;
27740;SDS011;15134;48.768;9.184;2022-11-15T14:12:53;11.52;;;4.00;;
27740;SDS011;15134;48.768;9.184;2022-11-15T14:15:38;7.43;;;3.55;;
27740;SDS011;15134;48.768;9.184;2022-11-15T14:18:38;9.33;;;3.73;;
27740;SDS011;15134;48.768;9.184;2022-11-15T14:21:07;8.00;;;3.85;;
27740;SDS011;15134;48.768;9.184;2022-11-15T14:23:34;10.90;;;4.50;;
27740;SDS011;15134;48.768;9.184;2022-11-15T14:26:00;11.37;;;4.73;;
27740;SDS011;15134;48.768;9.184;2022-11-15T14:28:32;10.37;;;4.07;;
27740;SDS011;15134;48.768;9.184;2022-11-15T14:31:06;8.27;;;3.83;;
27740;SDS011;15134;48.768;9.184;2022-11-15T14:33:38;8.60;;;3.75;;
27740;SDS011;15134;48.768;9.184;2022-11-15T14:36:06;14.80;;;4.60;;
27740;SDS011;15134;48.768;9.184;2022-11-15T14:38:45;8.30;;;3.95;;
27740;SDS011;15134;48.768;9.184;2022-11-15T14:41:22;6.65;;;3.80;;
27740;SDS011;15134;48.768;9.184;2022-11-15T14:43:49;7.10;;;3.25;;
27740;SDS011;15134;48.768;9.184;2022-11-15T14:46:16;12.32;;;4.13;;
27740;SDS011;15134;48.768;9.184;2022-11-15T14:48:41;10.63;;;3.53;;
27740;SDS011;15134;48.768;9.184;2022-11-15T14:51:14;8.37;;;3.90;;
27740;SDS011;15134;48.768;9.184;2022-11-15T14:53:43;9.07;;;3.60;;
27740;SDS011;15134;48.768;9.184;2022-11-15T14:56:10;9.55;;;4.70;;
27740;SDS011;15134;48.768;9.184;2022-11-15T14:58:36;11.85;;;4.82;;
27740;SDS011;15134;48.768;9.184;2022-11-15T15:03:57;7.70;;;3.70;;
27740;SDS011;15134;48.768;9.184;2022-11-15T15:06:23;7.68;;;3.47;;
27740;SDS011;15134;48.768;9.184;2022-11-15T15:08:49;8.32;;;4.18;;
27740;SDS011;15134;48.768;9.184;2022-11-15T15:11:29;8.10;;;3.88;;
27740;SDS011;15134;48.768;9.184;2022-11-15T15:13:56;12.23;;;4.90;;
27740;SDS011;15134;48.768;9.184;2022-11-15T15:16:24;12.80;;;6.68;;
27740;SDS011;15134;48.768;9.184;2022-11-15T15:18:50;9.13;;;5.17;;
27740;SDS011;15134;48.768;9.184;2022-11-15T15:21:20;7.47;;;3.90;;
27740;SDS011;15134;48.768;9.184;2022-11-15T15:23:51;6.82;;;3.50;;
27740;SDS011;15134;48.768;9.184;2022-11-15T15:26:24;7.75;;;3.65;;
27740;SDS011;15134;48.768;9.184;2022-11-15T15:28:52;7.57;;;3.40;;
27740;SDS011;15134;48.768;9.184;2022-11-15T15:31:18;8.60;;;4.53;;
27740;SDS011;15134;48.768;9.184;2022-11-15T15:33:44;9.40;;;4.50;;
27740;SDS011;15134;48.768;9.184;2022-11-15T15:36:13;10.03;;;4.23;;
27740;SDS011;15134;48.768;9.184;2022-11-15T15:38:42;8.50;;;4.05;;
27740;SDS011;15134;48.768;9.184;2022-11-15T15:41:11;8.90;;;4.37;;
27740;SDS011;15134;48.768;9.184;2022-11-15T15:43:38;10.82;;;5.13;;
27740;SDS011;15134;48.768;9.184;2022-11-15T15:46:04;10.33;;;4.93;;
27740;SDS011;15134;48.768;9.184;2022-11-15T15:48:36;9.00;;;4.38;;
27740;SDS011;15134;48.768;9.184;2022-11-15T15:51:04;7.82;;;4.15;;
27740;SDS011;15134;48.768;9.184;2022-11-15T15:53:30;8.57;;;4.68;;
27740;SDS011;15134;48.768;9.184;2022-11-15T15:55:56;8.30;;;4.50;;
27740;SDS011;15134;48.768;9.184;2022-11-15T15:58:24;9.63;;;4.20;;
27740;SDS011;15134;48.768;9.184;2022-11-15T16:00:50;13.52;;;4.85;;
27740;SDS011;15134;48.768;9.184;2022-11-15T16:03:16;9.03;;;4.63;;
27740;SDS011;15134;48.768;9.184;2022-11-15T16:05:42;7.33;;;3.53;;
27740;SDS011;15134;48.768;9.184;2022-11-15T16:08:29;8.77;;;4.07;;
27740;SDS011;15134;48.768;9.184;2022-11-15T16:10:55;8.95;;;4.15;;
27740;SDS011;15134;48.768;9.184;2022-11-15T16:13:20;9.63;;;4.57;;
27740;SDS011;15134;48.768;9.184;2022-11-15T16:15:47;8.87;;;4.20;;
27740;SDS011;15134;48.768;9.184;2022-11-15T16:18:17;8.45;;;4.07;;
27740;SDS011;15134;48.768;9.184;2022-11-15T16:20:47;9.87;;;4.30;;
27740;SDS011;15134;48.768;9.184;2022-11-15T16:23:17;9.35;;;4.75;;
27740;SDS011;15134;48.768;9.184;2022-11-15T16:25:48;13.50;;;4.57;;
27740;SDS011;15134;48.768;9.184;2022-11-15T16:30:42;9.67;;;4.10;;
27740;SDS011;15134;48.768;9.184;2022-11-15T16:33:07;8.17;;;3.93;;
27740;SDS011;15134;48.768;9.184;2022-11-15T16:35:33;8.90;;;4.40;;
27740;SDS011;15134;48.768;9.184;2022-11-15T16:37:59;11.27;;;3.97;;
27740;SDS011;15134;48.768;9.184;2022-11-15T16:40:31;11.03;;;4.10;;
27740;SDS011;15134;48.768;9.184;2022-11-15T16:42:58;8.02;;;3.88;;
27740;SDS011;15134;48.768;9.184;2022-11-15T16:45:27;10.48;;;5.00;;
27740;SDS011;15134;48.768;9.184;2022-11-15T16:47:56;9.75;;;4.57;;
27740;SDS011;15134;48.768;9.184;2022-11-15T16:50:25;10.53;;;4.20;;
27740;SDS011;15134;48.768;9.184;2022-11-15T16:52:56;8.70;;;3.88;;
27740;SDS011;15134;48.768;9.184;2022-11-15T16:55:29;11.98;;;6.05;;
27740;SDS011;15134;48.768;9.184;2022-11-15T16:57:57;15.13;;;7.90;;
27740;SDS011;15134;48.768;9.184;2022-11-15T17:00:23;19.67;;;8.25;;
27740;SDS011;15134;48.768;9.184;2022-11-15T17:02:56;15.75;;;8.52;;
27740;SDS011;15134;48.768;9.184;2022-11-15T17:05:22;15.43;;;9.90;;
27740;SDS011;15134;48.768;9.184;2022-11-15T17:07:51;18.60;;;9.48;;
27740;SDS011;15134;48.768;9.184;2022-11-15T17:10:18;14.60;;;8.07;;
27740;SDS011;15134;48.768;9.184;2022-11-15T17:12:50;18.75;;;9.23;;
27740;SDS011;15134;48.768;9.184;2022-11-15T17:15:16;16.65;;;7.60;;
27740;SDS011;15134;48.768;9.184;2022-11-15T17:17:43;15.27;;;7.30;;
27740;SDS011;15134;48.768;9.184;2022-11-15T17:20:13;14.60;;;7.63;;
27740;SDS011;15134;48.768;9.184;2022-11-15T17:22:41;17.35;;;7.05;;
27740;SDS011;15134;48.768;9.184;2022-11-15T17:25:06;13.30;;;6.27;;
27740;SDS011;15134;48.768;9.184;2022-11-15T17:27:32;11.48;;;6.38;;
27740;SDS011;15134;48.768;9.184;2022-11-15T17:29:59;14.53;;;5.20;;
27740;SDS011;15134;48.768;9.184;2022-11-15T17:32:25;10.70;;;4.27;;
27740;SDS011;15134;48.768;9.184;2022-11-15T17:34:50;8.67;;;4.73;;
27740;SDS011;15134;48.768;9.184;2022-11-15T17:37:16;11.27;;;5.10;;
27740;SDS011;15134;48.768;9.184;2022-11-15T17:39:42;7.90;;;4.60;;
27740;SDS011;15134;48.768;9.184;2022-11-15T17:42:07;10.27;;;4.97;;
27740;SDS011;15134;48.768;9.184;2022-11-15T17:44:33;11.40;;;5.13;;
27740;SDS011;15134;48.768;9.184;2022-11-15T17:47:00;9.67;;;5.23;;
27740;SDS011;15134;48.768;9.184;2022-11-15T17:49:28;13.27;;;4.95;;
27740;SDS011;15134;48.768;9.184;2022-11-15T17:51:53;12.63;;;5.63;;
27740;SDS011;15134;48.768;9.184;2022-11-15T17:54:19;9.90;;;4.70;;
27740;SDS011;15134;48.768;9.184;2022-11-15T17:56:45;9.73;;;4.97;;
27740;SDS011;15134;48.768;9.184;2022-11-15T17:59:12;38.40;;;17.83;;
27740;SDS011;15134;48.768;9.184;2022-11-15T18:01:38;19.10;;;10.18;;
27740;SDS011;15134;48.768;9.184;2022-11-15T18:04:04;11.97;;;6.30;;
27740;SDS011;15134;48.768;9.184;2022-11-15T18:06:33;8.80;;;5.25;;
27740;SDS011;15134;48.768;9.184;2022-11-15T18:11:37;13.00;;;5.38;;
27740;SDS011;15134;48.768;9.184;2022-11-15T18:14:09;10.63;;;5.72;;
27740;SDS011;15134;48.768;9.184;2022-11-15T18:16:38;13.55;;;5.80;;
27740;SDS011;15134;48.768;9.184;2022-11-15T18:19:04;11.45;;;5.90;;
27740;SDS011;15134;48.768;9.184;2022-11-15T18:21:37;12.80;;;6.28;;
27740;SDS011;15134;48.768;9.184;2022-11-15T18:24:22;10.93;;;5.68;;
27740;SDS011;15134;48.768;9.184;2022-11-15T18:26:56;13.80;;;7.22;;
27740;SDS011;15134;48.768;9.184;2022-11-15T18:29:23;22.95;;;6.90;;
27740;SDS011;15134;48.768;9.184;2022-11-15T18:31:49;12.60;;;6.15;;
27740;SDS011;15134;48.768;9.184;2022-11-15T18:34:19;16.25;;;9.02;;
27740;SDS011;15134;48.768;9.184;2022-11-15T18:36:47;14.52;;;7.90;;